Terminal Aerodrome Forecast
Issued by NWS

Home | Current Version | Previous Version | Text Only | Print | Product List | Glossary On
Versions: 1 2 3 4 5 6 7 8 9 10 11 12 13
897
FTUS46 KPDT 282320
TAFYKM
TAF
KYKM 282320Z 2900/2924 18007KT P6SM SCT060 SCT100
     FM290200 31007KT P6SM SCT120 SCT250
     FM291300 28005KT P6SM SCT060 BKN200
     FM291800 24013KT P6SM -SHRA BKN060 OVC080=

USA.gov is the U.S. government's official web portal to all federal, state and local government web resources and services.